Time;durP1;ratioP1;P1;durP2;ratioP2;P2;SDS_P1;SDS_P2;PMS_P1;PMS_P2;Temp;Humidity;BMP_temperature;BMP_pressure;BME280_temperature;BME280_humidity;BME280_pressure;Samples;Min_cycle;Max_cycle;Signal;HPM_P1;HPM_P2
2021/09/10 00:00:15;;;;;;;27.58;16.82;;;;;;;9.85;100.00;101266.12;1713246;83;21860;-53
2021/09/10 00:02:41;;;;;;;28.90;14.93;;;;;;;9.85;100.00;101266.99;1713016;83;20983;-53
2021/09/10 00:05:09;;;;;;;29.98;16.80;;;;;;;9.86;100.00;101265.25;1684731;83;20909;-53
2021/09/10 00:07:36;;;;;;;32.40;16.02;;;;;;;9.86;100.00;101263.95;1713032;83;21000;-53
2021/09/10 00:10:05;;;;;;;29.50;15.70;;;;;;;9.85;100.00;101263.53;1713022;83;20960;-53
2021/09/10 00:12:31;;;;;;;26.15;15.83;;;;;;;9.83;100.00;101263.52;1713028;83;21059;-53
2021/09/10 00:14:57;;;;;;;27.60;15.88;;;;;;;9.83;100.00;101270.44;1713091;83;20936;-53
2021/09/10 00:17:25;;;;;;;41.20;16.77;;;;;;;9.81;100.00;101270.87;1713075;83;20948;-53
2021/09/10 00:19:52;;;;;;;39.48;17.30;;;;;;;9.81;100.00;101266.55;1712927;83;20956;-53
2021/09/10 00:22:18;;;;;;;28.25;16.93;;;;;;;9.79;100.00;101260.52;1713358;83;20952;-53
2021/09/10 00:24:45;;;;;;;29.90;14.83;;;;;;;9.77;100.00;101261.83;1684579;83;21563;-53
2021/09/10 00:27:11;;;;;;;21.23;13.08;;;;;;;9.75;100.00;101261.39;1713176;83;21000;-53
2021/09/10 00:29:39;;;;;;;24.18;14.35;;;;;;;9.73;100.00;101260.54;1713117;83;21455;-53
2021/09/10 00:32:06;;;;;;;26.62;13.58;;;;;;;9.73;100.00;101260.54;1713391;83;21012;-53
2021/09/10 00:34:32;;;;;;;25.82;14.90;;;;;;;9.74;100.00;101259.67;1712933;83;20973;-53
2021/09/10 00:36:59;;;;;;;29.75;15.23;;;;;;;9.74;100.00;101255.80;1713041;83;21131;-53
2021/09/10 00:39:25;;;;;;;31.90;16.27;;;;;;;9.72;100.00;101259.66;1713321;83;20995;-53
2021/09/10 00:41:52;;;;;;;36.80;15.63;;;;;;;9.70;100.00;101260.10;1713339;83;20944;-53
2021/09/10 00:44:18;;;;;;;24.35;14.78;;;;;;;9.69;100.00;101255.80;1713159;83;20913;-53
2021/09/10 00:46:45;;;;;;;31.35;15.35;;;;;;;9.68;100.00;101259.25;1713046;83;20952;-53
2021/09/10 00:49:11;;;;;;;37.63;16.10;;;;;;;9.68;100.00;101262.28;1661958;83;21760;-53
2021/09/10 00:51:40;;;;;;;41.55;16.62;;;;;;;9.66;100.00;101259.69;1684577;83;20996;-53
2021/09/10 00:54:07;;;;;;;45.70;15.72;;;;;;;9.61;100.00;101263.59;1713046;83;20940;-53
2021/09/10 00:56:33;;;;;;;37.58;15.70;;;;;;;9.60;100.00;101262.29;1713023;83;21446;-53
2021/09/10 00:59:04;;;;;;;51.10;17.10;;;;;;;9.59;100.00;101261.86;1712914;83;20964;-53
2021/09/10 01:01:30;;;;;;;42.73;17.85;;;;;;;9.58;100.00;101263.56;1712821;83;21862;-53
2021/09/10 01:03:57;;;;;;;39.85;16.95;;;;;;;9.58;100.00;101267.89;1712899;83;20904;-53
2021/09/10 01:06:24;;;;;;;43.38;18.50;;;;;;;9.56;100.00;101260.13;1712997;83;20932;-53
2021/09/10 01:08:52;;;;;;;65.15;18.85;;;;;;;9.53;100.00;101258.00;1712878;83;20929;-54
2021/09/10 01:11:19;;;;;;;49.70;19.67;;;;;;;9.50;100.00;101258.84;1684920;83;20940;-53
2021/09/10 01:13:48;;;;;;;50.45;21.30;;;;;;;9.46;100.00;101253.27;1712773;83;21111;-53
2021/09/10 01:16:14;;;;;;;47.55;20.43;;;;;;;9.43;100.00;101248.09;1713155;83;20999;-53
2021/09/10 01:18:42;;;;;;;31.65;15.78;;;;;;;9.39;100.00;101244.64;1712962;83;20901;-53
2021/09/10 01:21:09;;;;;;;38.70;16.42;;;;;;;9.38;100.00;101249.38;1712958;83;20964;-53
2021/09/10 01:23:36;;;;;;;38.13;15.45;;;;;;;9.39;100.00;101247.23;1713078;83;21000;-53
2021/09/10 01:26:02;;;;;;;40.63;15.55;;;;;;;9.39;100.00;101243.35;1713011;83;21718;-53
2021/09/10 01:28:29;;;;;;;51.13;14.58;;;;;;;9.39;100.00;101247.23;1684561;83;21515;-53
2021/09/10 01:30:55;;;;;;;63.55;14.38;;;;;;;9.38;100.00;101244.22;1713063;83;20945;-53
2021/09/10 01:33:21;;;;;;;65.22;15.08;;;;;;;9.38;100.00;101246.80;1712806;83;20952;-53
2021/09/10 01:35:48;;;;;;;60.43;12.03;;;;;;;9.36;100.00;101245.95;1713013;83;20948;-53
2021/09/10 01:38:14;;;;;;;64.42;11.63;;;;;;;9.33;100.00;101243.36;1713258;82;21084;-53
2021/09/10 01:40:41;;;;;;;56.18;13.35;;;;;;;9.32;100.00;101250.24;1712919;83;20996;-53
2021/09/10 01:43:09;;;;;;;53.95;13.93;;;;;;;9.31;100.00;101238.63;1712801;83;20928;-53
2021/09/10 01:45:36;;;;;;;52.40;12.88;;;;;;;9.31;100.00;101246.38;1712982;83;21447;-53
2021/09/10 01:48:02;;;;;;;76.30;13.55;;;;;;;9.30;100.00;101247.25;1712202;83;21518;-53
2021/09/10 01:50:29;;;;;;;36.50;13.38;;;;;;;9.30;100.00;101237.76;1705076;84;21483;-53
2021/09/10 01:52:56;;;;;;;58.73;14.35;;;;;;;9.30;100.00;101240.34;1705086;84;20952;-53
2021/09/10 01:55:22;;;;;;;41.05;15.05;;;;;;;9.30;100.00;101239.49;1705363;84;20953;-52
2021/09/10 01:57:49;;;;;;;56.23;14.47;;;;;;;9.30;100.00;101242.92;1705037;84;20989;-52
2021/09/10 02:00:17;;;;;;;51.25;13.45;;;;;;;9.31;100.00;101239.92;1705165;84;21439;-53
2021/09/10 02:02:44;;;;;;;45.80;14.55;;;;;;;9.30;100.00;101240.79;1704953;83;21091;-52
2021/09/10 02:05:10;;;;;;;45.35;14.75;;;;;;;9.29;100.00;101246.82;1705372;84;21497;-52
2021/09/10 02:07:37;;;;;;;48.30;15.68;;;;;;;9.26;100.00;101240.36;1684931;84;20973;-52
2021/09/10 02:10:07;;;;;;;33.80;13.35;;;;;;;9.24;100.00;101248.55;1662353;84;21011;-52
2021/09/10 02:12:36;;;;;;;33.48;14.78;;;;;;;9.18;100.00;101245.08;1705167;84;20993;-52
2021/09/10 02:15:04;;;;;;;60.38;14.23;;;;;;;9.15;100.00;101240.36;1705297;84;21069;-52
2021/09/10 02:17:31;;;;;;;38.70;14.93;;;;;;;9.10;100.00;101239.06;1705071;84;20941;-52
2021/09/10 02:19:59;;;;;;;38.92;15.13;;;;;;;9.06;100.00;101238.64;1705199;84;21080;-52
2021/09/10 02:22:26;;;;;;;52.00;16.30;;;;;;;9.00;100.00;101239.48;1705217;84;20929;-52
2021/09/10 02:24:52;;;;;;;56.95;16.35;;;;;;;8.99;100.00;101240.34;1705412;82;21593;-52
2021/09/10 02:27:20;;;;;;;54.15;16.45;;;;;;;8.98;100.00;101243.79;1705112;84;21058;-52
2021/09/10 02:29:47;;;;;;;46.15;19.07;;;;;;;8.97;100.00;101243.78;1684839;84;20929;-52
2021/09/10 02:32:13;;;;;;;43.70;17.17;;;;;;;8.94;100.00;101246.36;1705505;84;21028;-52
2021/09/10 02:34:40;;;;;;;52.30;16.25;;;;;;;8.89;100.00;101237.34;1684832;84;22027;-52
2021/09/10 02:37:07;;;;;;;52.45;16.37;;;;;;;8.84;100.00;101237.32;1705256;84;20988;-52
2021/09/10 02:39:34;;;;;;;60.10;17.60;;;;;;;8.82;100.00;101240.75;1685060;84;21148;-52
2021/09/10 02:42:02;;;;;;;45.63;15.95;;;;;;;8.77;100.00;101234.31;1705073;84;20952;-55
2021/09/10 02:44:30;;;;;;;40.85;14.58;;;;;;;8.74;100.00;101236.44;1685139;84;21020;-52
2021/09/10 02:46:56;;;;;;;35.35;14.58;;;;;;;8.72;100.00;101235.58;1705477;84;21098;-52
2021/09/10 02:49:24;;;;;;;31.50;12.18;;;;;;;8.71;100.00;101239.02;1710855;83;20940;-52
2021/09/10 02:51:50;;;;;;;22.90;11.12;;;;;;;8.71;100.00;101235.56;1716129;83;21212;-52
2021/09/10 02:54:17;;;;;;;21.33;9.93;;;;;;;8.71;100.00;101235.56;1689507;83;21008;-52
2021/09/10 02:56:43;;;;;;;17.25;9.53;;;;;;;8.72;100.00;101234.73;1716218;83;20933;-53
2021/09/10 02:59:11;;;;;;;35.43;11.40;;;;;;;8.73;100.00;101239.04;1716402;83;20957;-52
2021/09/10 03:01:43;;;;;;;15.32;9.40;;;;;;;8.73;100.00;101237.75;1716358;82;21007;-52
2021/09/10 03:04:06;;;;;;;19.57;10.63;;;;;;;8.73;100.00;101232.59;1715355;83;21239;-52
2021/09/10 03:06:32;;;;;;;14.60;9.95;;;;;;;8.73;100.00;101233.43;1716000;83;20917;-55
2021/09/10 03:09:00;;;;;;;19.87;11.40;;;;;;;8.75;100.00;101239.45;1716087;83;20921;-53
2021/09/10 03:11:27;;;;;;;32.00;13.70;;;;;;;8.77;100.00;101240.77;1716182;83;21486;-52
2021/09/10 03:13:53;;;;;;;35.73;14.93;;;;;;;8.76;100.00;101238.59;1716280;83;21449;-52
2021/09/10 03:16:19;;;;;;;46.05;15.43;;;;;;;8.75;100.00;101242.04;1716194;82;21879;-52
2021/09/10 03:18:47;;;;;;;41.15;15.35;;;;;;;8.72;100.00;101238.61;1716061;83;20913;-52
2021/09/10 03:21:14;;;;;;;41.20;16.50;;;;;;;8.68;100.00;101240.73;1716015;83;21051;-52
2021/09/10 03:23:40;;;;;;;45.50;16.17;;;;;;;8.64;100.00;101230.84;1689995;83;20952;-52
2021/09/10 03:26:07;;;;;;;37.65;16.00;;;;;;;8.63;100.00;101240.73;1716096;83;21003;-52
2021/09/10 03:28:34;;;;;;;33.80;16.00;;;;;;;8.58;100.00;101240.72;1715878;83;20996;-52
2021/09/10 03:31:00;;;;;;;39.50;15.20;;;;;;;8.55;100.00;101247.58;1716251;82;21002;-52
2021/09/10 03:33:26;;;;;;;33.95;15.78;;;;;;;8.52;100.00;101243.30;1716036;83;20960;-52
2021/09/10 03:35:53;;;;;;;40.33;14.87;;;;;;;8.53;100.00;101246.72;1689816;83;20921;-52
2021/09/10 03:38:19;;;;;;;44.08;16.93;;;;;;;8.54;100.00;101246.73;1716146;82;21032;-52
2021/09/10 03:40:45;;;;;;;57.27;16.52;;;;;;;8.55;100.00;101247.16;1716136;83;21114;-52
2021/09/10 03:43:12;;;;;;;44.08;15.58;;;;;;;8.56;100.00;101247.59;1716115;83;20936;-53
2021/09/10 03:45:38;;;;;;;47.50;17.02;;;;;;;8.58;100.00;101249.75;1716352;83;20956;-52
2021/09/10 03:48:05;;;;;;;45.83;17.90;;;;;;;8.61;100.00;101246.33;1716041;82;21514;-52
2021/09/10 03:50:32;;;;;;;37.75;14.13;;;;;;;8.66;100.00;101248.90;1716008;82;20949;-52
2021/09/10 03:52:58;;;;;;;33.35;14.03;;;;;;;8.74;100.00;101249.80;1716227;83;21114;-52
2021/09/10 03:55:25;;;;;;;34.30;12.33;;;;;;;8.86;100.00;101249.80;1716047;83;20980;-52
2021/09/10 03:57:51;;;;;;;30.75;12.60;;;;;;;9.00;100.00;101248.97;1716258;83;20992;-52
2021/09/10 04:00:17;;;;;;;30.20;12.70;;;;;;;9.15;100.00;101251.98;1716016;83;20976;-52
2021/09/10 04:02:45;;;;;;;26.73;12.98;;;;;;;9.29;100.00;101251.53;1716045;83;20995;-52
2021/09/10 04:05:14;;;;;;;32.20;12.30;;;;;;;9.42;100.00;101254.98;1716126;83;20960;-52
2021/09/10 04:07:42;;;;;;;59.58;15.28;;;;;;;9.58;100.00;101262.72;1715928;83;20945;-52
2021/09/10 04:10:11;;;;;;;44.77;13.90;;;;;;;9.74;100.00;101272.19;1716034;83;21003;-52
2021/09/10 04:12:39;;;;;;;42.98;13.28;;;;;;;9.95;100.00;101268.25;1716143;83;21446;-52
2021/09/10 04:15:09;;;;;;;41.95;13.03;;;;;;;10.15;100.00;101263.00;1716245;83;20968;-52
2021/09/10 04:17:35;;;;;;;58.00;14.60;;;;;;;10.38;100.00;101262.05;1689886;83;21145;-52
2021/09/10 04:20:05;;;;;;;97.92;19.92;;;;;;;10.59;100.00;101261.97;1715956;83;20960;-52
2021/09/10 04:22:32;;;;;;;93.30;22.13;;;;;;;10.83;100.00;101252.34;1716334;83;20992;-52
2021/09/10 04:24:58;;;;;;;81.15;18.57;;;;;;;11.07;100.00;101256.46;1689408;83;20928;-52
2021/09/10 04:27:25;;;;;;;76.70;20.82;;;;;;;11.27;100.00;101250.72;1716364;83;20901;-52
2021/09/10 04:29:51;;;;;;;60.10;17.48;;;;;;;11.50;100.00;101259.15;1715988;83;21131;-52
2021/09/10 04:32:18;;;;;;;47.65;15.68;;;;;;;11.75;100.00;101258.91;1716384;82;21505;-53
2021/09/10 04:34:45;;;;;;;45.85;16.67;;;;;;;12.02;100.00;101258.20;1716066;82;21639;-52
2021/09/10 04:37:12;;;;;;;55.28;15.30;;;;;;;12.28;100.00;101258.33;1716054;83;20960;-52
2021/09/10 04:39:39;;;;;;;49.42;15.48;;;;;;;12.56;100.00;101260.97;1716032;83;20945;-52
2021/09/10 04:42:06;;;;;;;47.13;14.45;;;;;;;12.80;100.00;101250.69;1716113;82;21617;-52
2021/09/10 04:44:33;;;;;;;30.62;13.38;;;;;;;13.03;100.00;101248.18;1716107;83;21423;-52
2021/09/10 04:47:01;;;;;;;24.12;12.80;;;;;;;13.24;100.00;101243.05;1716260;83;20951;-53
2021/09/10 04:49:28;;;;;;;38.90;12.93;;;;;;;13.42;100.00;101241.87;1715859;82;20964;-52
2021/09/10 04:51:55;;;;;;;22.90;12.05;;;;;;;13.57;100.00;101245.97;1716008;83;21500;-52
2021/09/10 04:54:21;;;;;;;19.02;12.15;;;;;;;13.69;100.00;101242.73;1716118;83;21945;-52
2021/09/10 04:56:49;;;;;;;21.30;13.08;;;;;;;13.70;100.00;101247.05;1689636;83;21114;-52
2021/09/10 04:59:15;;;;;;;23.38;12.07;;;;;;;13.68;100.00;101242.33;1716450;83;20967;-52
2021/09/10 05:01:43;;;;;;;17.25;11.83;;;;;;;13.62;100.00;101236.78;1716069;83;21007;-53
2021/09/10 05:04:10;;;;;;;30.17;13.00;;;;;;;13.59;100.00;101238.15;1716182;83;21493;-53
2021/09/10 05:06:37;;;;;;;35.08;13.78;;;;;;;13.57;100.00;101238.16;1716025;83;22317;-53
2021/09/10 05:09:03;;;;;;;38.88;14.15;;;;;;;13.58;100.00;101239.03;1715985;83;20999;-53
2021/09/10 05:11:30;;;;;;;42.78;14.93;;;;;;;13.61;100.00;101228.11;1689318;83;20952;-53
2021/09/10 05:13:56;;;;;;;38.42;14.03;;;;;;;13.67;100.00;101231.51;1716301;83;20905;-53
2021/09/10 05:16:24;;;;;;;41.42;15.58;;;;;;;13.73;100.00;101228.32;1716004;83;20953;-53
2021/09/10 05:18:51;;;;;;;35.60;15.32;;;;;;;13.79;100.00;101229.95;1716309;83;21135;-53
2021/09/10 05:21:17;;;;;;;30.92;14.65;;;;;;;13.86;100.00;101222.89;1715839;83;21556;-53
2021/09/10 05:23:44;;;;;;;26.40;13.03;;;;;;;13.92;100.00;101225.36;1716097;83;21711;-53
2021/09/10 05:26:10;;;;;;;21.77;13.80;;;;;;;14.01;100.00;101219.12;1716152;83;21482;-53
2021/09/10 05:28:37;;;;;;;24.15;14.10;;;;;;;14.07;100.00;101213.77;1716031;83;21585;-53
2021/09/10 05:31:03;;;;;;;22.22;13.05;;;;;;;14.13;100.00;101212.80;1716129;83;21811;-53
2021/09/10 05:33:30;;;;;;;27.25;14.07;;;;;;;14.21;100.00;101212.17;1715854;83;20995;-53
2021/09/10 05:35:56;;;;;;;24.92;13.95;;;;;;;14.28;100.00;101215.08;1715999;82;20936;-53
2021/09/10 05:38:23;;;;;;;26.93;14.83;;;;;;;14.39;100.00;101215.28;1715763;83;20970;-53
2021/09/10 05:40:50;;;;;;;28.80;16.27;;;;;;;14.47;100.00;101215.95;1716117;82;21032;-53
2021/09/10 05:43:16;;;;;;;26.93;15.98;;;;;;;14.57;100.00;101220.08;1716189;83;21126;-53
2021/09/10 05:45:43;;;;;;;33.95;15.85;;;;;;;14.66;100.00;101219.02;1715986;83;20901;-53
2021/09/10 05:48:11;;;;;;;28.73;15.85;;;;;;;14.74;100.00;101228.84;1715886;83;20988;-53
2021/09/10 05:50:38;;;;;;;31.10;16.97;;;;;;;14.84;100.00;101220.35;1715952;82;20943;-53
2021/09/10 05:53:06;;;;;;;33.58;19.00;;;;;;;14.92;99.14;101220.17;1716136;83;20961;-53
2021/09/10 05:55:33;;;;;;;34.63;16.90;;;;;;;15.00;98.14;101223.87;1715854;83;21244;-53
2021/09/10 05:57:59;;;;;;;29.98;17.55;;;;;;;15.11;96.68;101231.42;1716084;82;20983;-52
2021/09/10 06:00:26;;;;;;;34.27;18.60;;;;;;;15.20;95.90;101229.45;1715886;83;21004;-53
2021/09/10 06:05:45;;;;;;;33.02;17.82;;;;;;;15.40;93.59;101229.38;1798210;79;23188;-53
2021/09/10 06:08:11;;;;;;;40.30;17.80;;;;;;;15.47;93.07;101237.91;1758200;81;21469;-52
2021/09/10 06:10:41;;;;;;;42.88;18.82;;;;;;;15.58;92.54;101235.86;1739162;81;21105;-53
2021/09/10 06:13:12;;;;;;;38.53;17.27;;;;;;;15.67;91.17;101238.67;1757852;81;21447;-53
2021/09/10 06:15:38;;;;;;;35.90;17.50;;;;;;;15.77;90.13;101234.89;1758282;81;20924;-53
2021/09/10 06:18:05;;;;;;;41.42;18.27;;;;;;;15.89;89.10;101236.80;1758009;81;20988;-53
2021/09/10 06:20:32;;;;;;;36.42;16.97;;;;;;;15.99;88.73;101242.16;1757938;81;20967;-53
2021/09/10 06:22:59;;;;;;;33.30;16.77;;;;;;;16.11;88.02;101242.72;1757865;81;21245;-53
2021/09/10 06:25:25;;;;;;;30.95;15.78;;;;;;;16.22;86.51;101247.16;1757804;80;20991;-53
2021/09/10 06:27:52;;;;;;;34.70;17.67;;;;;;;16.30;85.11;101243.89;1757943;81;21516;-53
2021/09/10 06:30:20;;;;;;;35.30;16.15;;;;;;;16.42;85.34;101246.59;1749715;80;20984;-53
2021/09/10 06:32:46;;;;;;;29.05;16.62;;;;;;;16.54;85.02;101242.71;1749561;81;20980;-53
2021/09/10 06:35:12;;;;;;;35.98;16.20;;;;;;;16.63;84.89;101242.45;1749881;80;21129;-53
2021/09/10 06:37:39;;;;;;;32.23;16.52;;;;;;;16.74;84.90;101234.70;1749421;82;20979;-53
2021/09/10 06:40:08;;;;;;;29.25;16.90;;;;;;;16.86;84.63;101236.06;1749671;82;20889;-53
2021/09/10 06:42:34;;;;;;;39.35;17.17;;;;;;;16.98;84.12;101235.71;1720278;82;20931;-52
2021/09/10 06:45:01;;;;;;;35.43;16.50;;;;;;;17.11;84.04;101233.98;1749608;82;20971;-53
2021/09/10 06:47:28;;;;;;;27.90;15.70;;;;;;;17.23;83.38;101235.73;1749807;80;21371;-52
2021/09/10 06:49:55;;;;;;;40.45;15.60;;;;;;;17.36;82.96;101236.16;1749556;82;21006;-53
2021/09/10 06:52:22;;;;;;;37.20;16.80;;;;;;;17.50;82.71;101235.68;1749739;82;20941;-52
2021/09/10 06:54:49;;;;;;;35.25;17.17;;;;;;;17.65;80.59;101233.44;1749673;80;21517;-52
2021/09/10 06:57:15;;;;;;;34.98;16.65;;;;;;;17.78;79.54;101239.09;1749815;82;21481;-52
2021/09/10 06:59:41;;;;;;;43.20;18.37;;;;;;;17.90;79.28;101238.62;1749576;80;21807;-52
2021/09/10 07:02:08;;;;;;;37.73;17.10;;;;;;;18.01;79.32;101238.27;1749567;82;21219;-52
2021/09/10 07:04:35;;;;;;;36.17;16.60;;;;;;;18.16;79.56;101242.06;1744170;81;21023;-52
2021/09/10 07:07:03;;;;;;;36.65;17.65;;;;;;;18.30;79.14;101239.39;1736358;82;20941;-52
2021/09/10 07:09:31;;;;;;;46.53;16.50;;;;;;;18.44;78.70;101229.67;1736299;82;20976;-52
2021/09/10 07:11:58;;;;;;;38.13;16.10;;;;;;;18.57;77.86;101233.98;1736265;82;21810;-52
2021/09/10 07:14:26;;;;;;;29.95;16.17;;;;;;;18.70;76.07;101234.34;1736388;82;21003;-53
2021/09/10 07:16:53;;;;;;;45.80;17.85;;;;;;;18.87;75.18;101238.45;1736050;82;21452;-53
2021/09/10 07:19:19;;;;;;;33.85;15.90;;;;;;;19.03;76.31;101244.39;1715095;82;21526;-53
2021/09/10 07:21:47;;;;;;;38.33;17.30;;;;;;;19.16;75.41;101243.42;1735956;81;20964;-52
2021/09/10 07:24:14;;;;;;;42.62;17.25;;;;;;;19.31;75.56;101239.28;1735859;82;21315;-53
2021/09/10 07:26:41;;;;;;;40.88;16.35;;;;;;;19.45;74.60;101240.87;1735755;81;20960;-53
2021/09/10 07:29:07;;;;;;;42.00;15.55;;;;;;;19.61;73.81;101236.27;1735872;81;20945;-53
2021/09/10 07:31:34;;;;;;;37.25;17.87;;;;;;;19.75;73.95;101238.28;1736194;82;20921;-53
2021/09/10 07:34:00;;;;;;;31.62;15.60;;;;;;;19.94;73.55;101246.20;1736333;82;22279;-53
2021/09/10 07:36:26;;;;;;;42.90;15.78;;;;;;;20.07;71.36;101235.98;1736014;82;21493;-53
2021/09/10 07:38:53;;;;;;;40.12;15.00;;;;;;;20.24;70.43;101241.32;1736010;82;21352;-53
2021/09/10 07:41:19;;;;;;;30.85;14.33;;;;;;;20.38;69.74;101238.04;1735761;82;20890;-53
2021/09/10 07:43:45;;;;;;;41.80;15.45;;;;;;;20.56;68.46;101242.00;1736127;82;20992;-52
2021/09/10 07:46:13;;;;;;;26.52;15.60;;;;;;;20.71;68.52;101243.04;1735817;82;20886;-52
2021/09/10 07:48:40;;;;;;;34.50;15.38;;;;;;;20.86;68.76;101232.73;1735818;82;22379;-53
2021/09/10 07:51:08;;;;;;;30.25;14.85;;;;;;;20.99;68.39;101235.16;1714760;82;20941;-53
2021/09/10 07:53:34;;;;;;;25.25;14.15;;;;;;;21.13;68.35;101228.33;1735896;81;20913;-53
2021/09/10 07:56:01;;;;;;;29.23;14.95;;;;;;;21.29;67.06;101223.99;1736084;82;21506;-53
2021/09/10 07:58:27;;;;;;;23.42;15.63;;;;;;;21.45;67.15;101228.44;1736134;81;21478;-53
2021/09/10 08:00:53;;;;;;;34.40;16.12;;;;;;;21.58;64.38;101233.91;1735975;82;21598;-53
2021/09/10 08:03:20;;;;;;;25.57;14.70;;;;;;;21.69;64.95;101232.93;1735734;82;20918;-53
2021/09/10 08:05:46;;;;;;;47.60;15.28;;;;;;;21.85;65.13;101231.64;1746505;81;20988;-52
2021/09/10 08:08:13;;;;;;;27.60;13.95;;;;;;;22.03;64.59;101222.36;1722573;82;21465;-52
2021/09/10 08:10:41;;;;;;;26.00;14.63;;;;;;;22.20;63.66;101225.38;1749942;82;20932;-53
2021/09/10 08:13:07;;;;;;;24.02;13.90;;;;;;;22.36;63.22;101225.37;1749880;80;21308;-52
2021/09/10 08:15:34;;;;;;;29.75;14.18;;;;;;;22.48;62.17;101217.27;1749841;82;20908;-53
2021/09/10 08:18:02;;;;;;;18.42;12.75;;;;;;;22.60;62.18;101219.19;1750040;82;21047;-53
2021/09/10 08:20:29;;;;;;;28.32;14.58;;;;;;;22.77;60.54;101214.28;1749850;82;20984;-53
2021/09/10 08:22:56;;;;;;;32.00;14.43;;;;;;;22.90;60.54;101217.05;1722648;82;20980;-53
2021/09/10 08:25:23;;;;;;;35.40;14.13;;;;;;;23.04;60.53;101208.77;1722549;82;21445;-53
2021/09/10 08:27:51;;;;;;;24.23;13.83;;;;;;;23.22;59.03;101205.49;1749814;82;21331;-53
2021/09/10 08:30:18;;;;;;;20.70;12.90;;;;;;;23.37;57.97;101209.05;1749594;82;20952;-53
2021/09/10 08:32:44;;;;;;;27.73;13.83;;;;;;;23.58;56.62;101203.37;1722133;82;21011;-53
2021/09/10 08:35:11;;;;;;;21.85;12.85;;;;;;;23.70;54.42;101203.95;1749695;82;20955;-53
2021/09/10 08:37:37;;;;;;;20.65;12.95;;;;;;;23.85;53.53;101208.75;1750159;82;21167;-53
2021/09/10 08:40:07;;;;;;;25.68;13.60;;;;;;;24.05;53.95;101205.35;1721982;82;21573;-52
2021/09/10 08:42:33;;;;;;;21.87;12.60;;;;;;;24.21;54.36;101209.17;1722320;82;20993;-53
2021/09/10 08:45:00;;;;;;;21.48;13.48;;;;;;;24.42;53.73;101205.60;1749782;82;21497;-53
2021/09/10 08:47:27;;;;;;;29.48;12.88;;;;;;;24.70;53.21;101197.16;1749749;82;20877;-53
2021/09/10 08:49:53;;;;;;;18.45;13.08;;;;;;;24.98;51.40;101199.79;1749780;81;21117;-53
2021/09/10 08:52:21;;;;;;;30.48;14.07;;;;;;;25.25;50.40;101198.35;1749615;82;21007;-53
2021/09/10 08:54:47;;;;;;;20.85;12.07;;;;;;;25.46;49.32;101195.17;1749724;82;20908;-53
2021/09/10 08:57:14;;;;;;;22.58;12.70;;;;;;;25.68;50.54;101191.90;1750077;82;21442;-53
2021/09/10 08:59:40;;;;;;;20.10;11.78;;;;;;;25.85;48.55;101189.36;1749811;81;21003;-52
2021/09/10 09:02:07;;;;;;;25.95;12.05;;;;;;;26.01;46.61;101185.12;1749811;82;22799;-53
2021/09/10 09:04:38;;;;;;;20.05;11.90;;;;;;;26.27;47.12;101189.48;1747728;81;21052;-53
2021/09/10 09:07:09;;;;;;;20.15;11.10;;;;;;;26.55;47.21;101179.00;1735853;82;20914;-53
2021/09/10 09:09:41;;;;;;;22.37;12.23;;;;;;;26.79;45.26;101171.47;1714613;82;20952;-53
2021/09/10 09:12:21;;;;;;;21.35;11.45;;;;;;;26.93;43.91;101176.62;1736160;82;21059;-52
2021/09/10 09:14:57;;;;;;;19.48;12.07;;;;;;;26.91;44.21;101175.89;1735698;82;21056;-53
2021/09/10 09:17:33;;;;;;;17.02;11.25;;;;;;;27.06;43.60;101165.89;1736180;82;28075;-54
2021/09/10 09:20:25;;;;;;;13.20;9.58;;;;;;;27.34;42.69;101165.05;1714520;82;20904;-53
2021/09/10 09:23:11;;;;;;;16.67;9.75;;;;;;;27.37;41.30;101158.63;1735971;81;20961;-53
2021/09/10 09:25:47;;;;;;;15.93;10.65;;;;;;;27.35;40.93;101156.59;1735851;82;20882;-53
2021/09/10 09:28:31;;;;;;;15.10;10.23;;;;;;;27.36;39.75;101149.83;1735863;82;21072;-53
2021/09/10 09:31:01;;;;;;;18.12;10.70;;;;;;;27.13;40.81;101149.47;1716846;82;20917;-53
2021/09/10 09:33:34;;;;;;;18.48;9.40;;;;;;;27.14;40.94;101148.50;1735715;82;21164;-53
2021/09/10 09:36:02;;;;;;;12.55;9.25;;;;;;;27.02;39.04;101147.64;1735363;82;20925;-53
2021/09/10 09:38:33;;;;;;;11.83;8.68;;;;;;;26.85;37.68;101150.28;1736089;82;20996;-52
2021/09/10 09:41:03;;;;;;;13.45;9.08;;;;;;;26.76;37.86;101146.48;1735812;82;21153;-53
2021/09/10 09:43:37;;;;;;;21.52;10.25;;;;;;;26.94;38.91;101142.45;1736040;82;20934;-52
2021/09/10 09:46:09;;;;;;;12.53;9.78;;;;;;;27.14;40.56;101136.05;1735697;82;21399;-53
2021/09/10 09:48:39;;;;;;;23.90;12.20;;;;;;;27.22;40.79;101134.98;1736014;82;20921;-53
2021/09/10 09:51:05;;;;;;;19.17;10.50;;;;;;;27.39;40.89;101131.45;1735659;82;21096;-53
2021/09/10 09:53:36;;;;;;;13.45;9.40;;;;;;;27.35;39.23;101136.19;1735912;81;21206;-53
2021/09/10 09:56:03;;;;;;;10.75;8.13;;;;;;;27.14;35.74;101132.06;1735679;81;21351;-53
2021/09/10 09:58:30;;;;;;;17.10;9.78;;;;;;;27.30;36.73;101123.75;1735737;82;20910;-53
2021/09/10 10:00:59;;;;;;;18.87;9.58;;;;;;;27.52;38.17;101128.22;1735712;82;20937;-53
2021/09/10 10:03:25;;;;;;;16.50;9.65;;;;;;;27.52;36.68;101125.56;1735694;82;21482;-53
2021/09/10 10:06:12;;;;;;;15.08;10.20;;;;;;;27.20;38.11;101126.29;1743312;82;21319;-53
2021/09/10 10:09:06;;;;;;;16.48;10.82;;;;;;;27.15;39.05;101127.11;1749754;82;20936;-53
2021/09/10 10:11:50;;;;;;;14.43;9.88;;;;;;;27.20;38.63;101118.79;1749648;81;20980;-53
2021/09/10 10:14:37;;;;;;;16.87;9.48;;;;;;;27.47;38.93;101114.44;1749982;82;20983;-53
2021/09/10 10:17:15;;;;;;;15.63;9.95;;;;;;;27.79;39.21;101116.32;1749714;82;21493;-53
2021/09/10 10:19:43;;;;;;;20.88;10.18;;;;;;;27.85;37.27;101108.80;1744124;82;21146;-53
2021/09/10 10:22:11;;;;;;;21.12;10.45;;;;;;;27.95;36.81;101107.92;1749729;82;20893;-53
2021/09/10 10:24:46;;;;;;;17.77;9.65;;;;;;;27.76;38.59;101107.73;1722194;82;20921;-53
2021/09/10 10:27:35;;;;;;;25.52;10.53;;;;;;;27.86;36.87;101106.50;1749988;82;20932;-53
2021/09/10 10:30:10;;;;;;;18.32;10.18;;;;;;;27.72;36.67;101100.52;1749688;82;20913;-53
2021/09/10 10:32:39;;;;;;;23.98;10.88;;;;;;;27.61;38.63;101097.87;1749747;82;21973;-52
2021/09/10 10:35:26;;;;;;;24.52;10.98;;;;;;;27.48;37.22;101099.31;1749982;82;20979;-52
2021/09/10 10:38:07;;;;;;;26.93;10.45;;;;;;;27.33;38.58;101089.44;1721865;82;20849;-52
2021/09/10 10:40:51;;;;;;;16.42;11.03;;;;;;;27.44;38.29;101093.42;1749625;82;21027;-52
2021/09/10 10:43:24;;;;;;;34.30;11.03;;;;;;;27.48;38.09;101088.21;1749344;82;20956;-52
2021/09/10 10:46:08;;;;;;;30.60;12.00;;;;;;;27.61;37.01;101093.88;1749662;82;21162;-52
2021/09/10 10:48:44;;;;;;;30.92;11.68;;;;;;;27.64;37.66;101088.31;1721809;82;20896;-52
2021/09/10 10:51:20;;;;;;;26.50;11.22;;;;;;;27.77;37.63;101090.81;1749708;82;20944;-52
2021/09/10 10:53:55;;;;;;;26.40;11.95;;;;;;;27.88;36.38;101085.95;1750366;81;20975;-52
2021/09/10 10:56:34;;;;;;;26.80;12.13;;;;;;;27.95;37.70;101089.81;1750149;82;20980;-53
2021/09/10 10:59:21;;;;;;;23.85;11.38;;;;;;;28.10;36.18;101082.37;1721918;82;21088;-53
2021/09/10 11:02:21;;;;;;;18.27;11.65;;;;;;;28.04;36.26;101088.17;1749867;81;20952;-52
2021/09/10 11:05:14;;;;;;;19.62;11.30;;;;;;;27.80;37.10;101078.63;1747201;82;20948;-52
2021/09/10 11:07:42;;;;;;;14.38;10.63;;;;;;;27.70;35.89;101075.88;1749654;82;21525;-53
2021/09/10 11:10:16;;;;;;;27.73;10.38;;;;;;;27.64;37.08;101072.36;1749951;82;22094;-53
2021/09/10 11:12:47;;;;;;;20.80;10.68;;;;;;;27.66;37.70;101075.73;1749907;82;20997;-52
2021/09/10 11:15:26;;;;;;;26.62;10.82;;;;;;;27.72;37.51;101071.27;1749694;82;21457;-53
2021/09/10 11:18:08;;;;;;;19.52;10.25;;;;;;;27.67;37.02;101074.30;1750068;82;20991;-52